Latest Weather Observations for Parndana

IDS60801

Issued at 10:35 pm CST Friday 18 April 2014 (issued every 30 minutes, with the page automatically refreshed every 10 minutes)

About weather observations | Map of weather stations | Latest weather observations for SA | Other Formats
Station Details ID: 022843 Name: PARNDANA CFS AWS Lat: -35.79 Lon: 137.25 Height: 165.0 m
Data from the previous 72 hours. | See also: Recent months at Parndana
Date/Time
CST
Temp
°C
App
Temp
°C
Dew
Point
Rel
Hum
%
Delta-T
°C
Wind Press
QNH
hPa
Press
MSL
hPa
Rain
since 9 am
mm
Dir
 
Spd
km/h
Gust
km/h
Spd
kts
Gust
kts
18/10:30pm 10.7 9.7 7.2 79 1.7 SSW 2 4 1 2 - - 0.0
18/10:00pm 10.7 10.1 7.6 81 1.5 S 0 2 0 1 - - 0.0
18/09:30pm 11.3 9.6 7.6 78 1.8 SW 6 6 3 3 - - 0.0
18/09:00pm 10.9 9.5 7.4 79 1.7 SW 4 4 2 2 - - 0.0
18/08:30pm 11.8 9.9 7.5 75 2.1 SW 7 11 4 6 - - 0.0
18/08:00pm 11.2 9.7 6.9 75 2.1 SSW 4 4 2 2 - - 0.0
18/07:30pm 11.1 9.2 6.6 74 2.1 SSW 6 7 3 4 - - 0.0
18/07:00pm 11.5 9.5 6.2 70 2.5 S 6 7 3 4 - - 0.0
18/06:30pm 12.0 10.0 6.1 67 2.8 S 6 7 3 4 - - 0.0
18/06:00pm 12.6 10.4 6.0 64 3.1 S 7 7 4 4 - - 0.0
18/05:30pm 13.6 11.0 6.0 60 3.6 S 9 13 5 7 - - 0.0
18/05:00pm 14.9 11.8 5.7 54 4.4 S 11 15 6 8 - - 0.0
18/04:30pm 15.9 12.0 5.5 50 5.0 S 15 24 8 13 - - 0.0
18/04:00pm 15.6 10.0 5.5 51 4.9 S 24 30 13 16 - - 0.0
18/03:30pm 16.3 11.4 5.3 48 5.3 S 20 32 11 17 - - 0.0
18/03:00pm 16.3 11.4 5.3 48 5.3 S 20 30 11 16 - - 0.0
18/02:30pm 16.5 11.5 6.6 52 4.9 S 22 30 12 16 - - 0.0
18/02:00pm 16.5 11.3 7.4 55 4.6 S 24 33 13 18 - - 0.0
18/01:30pm 16.1 11.2 8.3 60 4.0 S 24 35 13 19 - - 0.0
18/01:00pm 17.4 12.6 7.2 51 5.1 S 22 33 12 18 - - 0.0
18/12:30pm 17.0 12.3 7.6 54 4.8 S 22 32 12 17 - - 0.0
18/12:00pm 16.4 11.6 7.3 55 4.6 SSW 22 33 12 18 - - 0.0
18/11:30am 16.9 12.2 7.8 55 4.6 S 22 32 12 17 - - 0.0
18/11:00am 16.8 12.7 8.5 58 4.3 S 20 32 11 17 - - 0.0
18/10:30am 16.5 11.5 8.0 57 4.3 SSW 24 35 13 19 - - 0.0
18/10:00am 16.5 11.6 6.9 53 4.8 S 22 32 12 17 - - 0.0
18/09:30am 15.8 10.7 7.6 58 4.1 SSW 24 33 13 18 - - 0.0
18/09:00am 15.1 10.7 8.8 66 3.2 SSW 22 32 12 17 - - 1.6
18/08:30am 14.6 10.7 9.4 71 2.7 SSW 20 28 11 15 - - 1.6
18/08:00am 13.8 10.2 10.0 78 2.0 SSW 19 22 10 12 - - 1.6
18/07:30am 13.1 10.1 10.6 85 1.3 SSW 17 22 9 12 - - 1.6
18/07:00am 13.1 9.7 11.2 88 1.0 SSW 20 28 11 15 - - 1.6
18/06:30am 13.3 9.6 11.5 89 1.0 SSW 22 32 12 17 - - 1.6
18/06:00am 13.5 10.1 12.4 93 0.6 SSW 22 30 12 16 - - 1.6
18/05:30am 13.8 12.0 13.2 96 0.3 SSW 15 20 8 11 - - 1.6
18/05:00am 13.9 12.8 13.1 95 0.4 SW 11 13 6 7 - - 1.6
18/04:30am 14.3 11.8 13.5 95 0.4 SW 19 30 10 16 - - 1.4
18/04:00am 14.7 13.0 13.7 94 0.6 WNW 15 19 8 10 - - 0.2
18/03:30am 13.6 12.1 13.0 96 0.3 NW 13 19 7 10 - - 0.2
18/03:00am 12.9 11.2 12.3 96 0.3 NW 13 15 7 8 - - 0.2
18/02:30am 12.7 10.8 11.9 95 0.4 NW 13 15 7 8 - - 0.2
18/02:00am 12.9 11.4 12.0 94 0.5 NW 11 13 6 7 - - 0.2
18/01:30am 13.5 11.1 12.6 94 0.5 WNW 17 19 9 10 - - 0.2
18/01:00am 13.1 11.3 12.2 94 0.5 WNW 13 15 7 8 - - 0.2
18/12:30am 12.9 11.4 11.8 93 0.6 WNW 11 13 6 7 - - 0.2
18/12:00am 14.0 11.9 12.4 90 0.9 WNW 15 19 8 10 - - 0.2
 
Date/Time
CST
Temp
°C
App
Temp
°C
Dew
Point
Rel
Hum
%
Delta-T
°C
Wind Press
QNH
hPa
Press
MSL
hPa
Rain
since 9 am
mm
Dir
 
Spd
km/h
Gust
km/h
Spd
kts
Gust
kts
17/11:30pm 14.4 12.4 12.8 90 0.9 W 15 19 8 10 - - 0.2
17/11:00pm 14.5 12.6 12.9 90 0.9 W 15 17 8 9 - - 0.2
17/10:30pm 15.4 13.4 13.8 90 0.9 WNW 17 20 9 11 - - 0.2
17/10:00pm 15.9 13.5 14.4 91 0.9 NW 20 26 11 14 - - 0.2
17/09:30pm 16.3 15.5 15.0 92 0.8 NW 13 24 7 13 - - 0.2
17/09:00pm 16.1 15.1 14.6 91 0.9 NNW 13 17 7 9 - - 0.2
17/08:30pm 15.6 14.9 14.3 92 0.7 NNW 11 15 6 8 - - 0.2
17/08:00pm 15.3 14.2 14.2 93 0.6 NNW 13 17 7 9 - - 0.2
17/07:30pm 15.0 14.5 13.9 93 0.6 NW 9 13 5 7 - - 0.2
17/07:00pm 15.1 14.1 13.5 90 0.9 WNW 11 15 6 8 - - 0.2
17/06:30pm 15.5 14.4 13.2 86 1.3 NW 11 15 6 8 - - 0.2
17/06:00pm 16.6 15.6 13.3 81 1.9 WNW 11 17 6 9 - - 0.2
17/05:30pm 17.6 16.1 13.1 75 2.5 NW 13 17 7 9 - - 0.2
17/05:00pm 18.1 15.4 12.8 71 3.0 NW 19 24 10 13 - - 0.2
17/04:30pm 19.0 16.3 13.0 68 3.4 NNW 19 24 10 13 - - 0.2
17/04:00pm 19.2 16.6 13.2 68 3.4 NNW 19 24 10 13 - - 0.2
17/03:30pm 19.2 16.2 13.6 70 3.2 NW 22 30 12 16 - - 0.2
17/03:00pm 19.3 16.6 12.8 66 3.7 NNW 19 26 10 14 - - 0.2
17/02:30pm 20.5 18.1 12.5 60 4.5 NNW 17 20 9 11 - - 0.2
17/02:00pm 19.8 16.8 12.6 63 4.1 NNW 20 32 11 17 - - 0.2
17/01:30pm 20.6 18.2 11.5 56 5.1 NW 15 26 8 14 - - 0.0
17/01:00pm 20.7 18.6 11.3 55 5.2 NW 13 20 7 11 - - 0.0
17/12:30pm 19.4 17.0 12.7 65 3.8 NW 17 24 9 13 - - 0.0
17/12:00pm 20.6 17.5 11.5 56 5.1 NW 19 26 10 14 - - 0.0
17/11:30am 19.4 16.8 11.9 62 4.2 NW 17 24 9 13 - - 0.0
17/11:00am 19.0 17.1 13.0 68 3.4 WNW 15 22 8 12 - - 0.0
17/10:30am 18.4 16.3 13.5 73 2.8 WNW 17 24 9 13 - - 0.0
17/10:00am 17.5 16.3 14.0 80 2.0 N 13 17 7 9 - - 0.0
17/09:30am 16.2 15.7 13.7 85 1.4 NNW 9 13 5 7 - - 0.0
17/09:00am 14.8 14.7 13.8 94 0.6 NW 7 9 4 5 - - 0.2
17/08:30am 13.0 12.7 12.7 98 0.2 N 6 9 3 5 - - 0.2
17/08:00am 12.2 11.7 12.0 99 0.1 N 6 7 3 4 - - 0.2
17/07:30am 9.6 8.4 9.5 99 0.1 N 6 6 3 3 - - 0.2
17/07:00am 7.3 5.5 7.0 98 0.1 N 6 7 3 4 - - 0.2
17/06:30am 9.6 8.2 9.5 99 0.1 N 7 9 4 5 - - 0.2
17/06:00am 9.3 8.7 9.0 98 0.1 N 2 4 1 2 - - 0.2
17/05:30am 8.8 8.5 8.7 99 0.0 CALM 0 2 0 1 - - 0.2
17/05:00am 10.2 9.5 9.9 98 0.2 WSW 4 4 2 2 - - 0.2
17/04:30am 10.1 9.0 9.8 98 0.2 WSW 6 6 3 3 - - 0.2
17/04:00am 10.5 9.5 10.3 99 0.1 WSW 6 7 3 4 - - 0.2
17/03:30am 9.8 8.0 9.5 98 0.2 WSW 9 11 5 6 - - 0.2
17/03:00am 9.9 8.1 9.6 98 0.2 W 9 9 5 5 - - 0.2
17/02:30am 10.9 10.0 10.6 98 0.2 W 6 7 3 4 - - 0.2
17/02:00am 10.7 9.7 10.4 98 0.2 WSW 6 7 3 4 - - 0.2
17/01:30am 11.2 10.1 10.7 97 0.3 WSW 7 9 4 5 - - 0.2
17/01:00am 12.6 12.5 12.1 97 0.3 W 4 6 2 3 - - 0.2
17/12:30am 12.5 12.0 12.2 98 0.2 W 6 6 3 3 - - 0.2
17/12:00am 12.3 11.5 11.8 97 0.3 W 7 9 4 5 - - 0.2
 
Date/Time
CST
Temp
°C
App
Temp
°C
Dew
Point
Rel
Hum
%
Delta-T
°C
Wind Press
QNH
hPa
Press
MSL
hPa
Rain
since 9 am
mm
Dir
 
Spd
km/h
Gust
km/h
Spd
kts
Gust
kts
16/11:30pm 13.1 12.6 12.6 97 0.3 W 7 7 4 4 - - 0.2
16/11:00pm 13.1 12.6 12.6 97 0.3 W 7 7 4 4 - - 0.2
16/10:30pm 13.1 12.6 12.5 96 0.3 WNW 7 7 4 4 - - 0.2
16/10:00pm 12.9 12.2 12.1 95 0.4 NNW 7 9 4 5 - - 0.2
16/09:30pm 13.6 12.8 12.8 95 0.4 NNW 9 11 5 6 - - 0.2
16/09:00pm 13.7 13.1 12.4 92 0.7 N 7 9 4 5 - - 0.2
16/08:30pm 13.8 13.2 12.4 91 0.8 N 7 9 4 5 - - 0.2
16/08:00pm 13.9 13.2 11.9 88 1.1 NW 7 9 4 5 - - 0.2
16/07:30pm 14.4 13.9 12.1 86 1.3 W 6 6 3 3 - - 0.2
16/07:00pm 14.6 12.7 11.9 84 1.5 W 13 15 7 8 - - 0.2
16/06:30pm 14.8 13.7 11.8 82 1.6 WNW 9 11 5 6 - - 0.2
16/06:00pm 16.2 14.9 11.2 72 2.7 NW 9 15 5 8 - - 0.2
16/05:30pm 18.3 16.6 9.9 58 4.5 WNW 9 15 5 8 - - 0.2
16/05:00pm 19.5 17.5 10.0 54 5.1 WNW 11 20 6 11 - - 0.2
16/04:30pm 19.4 16.2 9.9 54 5.1 WNW 17 24 9 13 - - 0.2
16/04:00pm 20.3 16.5 9.8 51 5.7 WNW 20 28 11 15 - - 0.2
16/03:30pm 20.6 16.2 10.4 52 5.6 WNW 24 35 13 19 - - 0.2
16/03:00pm 19.9 15.6 9.2 50 5.7 WNW 22 33 12 18 - - 0.2
16/02:30pm 21.4 17.4 9.0 45 6.6 WNW 20 30 11 16 - - 0.2
16/02:00pm 20.9 16.9 9.2 47 6.3 WNW 20 30 11 16 - - 0.2
16/01:30pm 20.6 16.6 8.9 47 6.2 NW 20 28 11 15 - - 0.2
16/01:00pm 19.5 15.4 8.8 50 5.6 WNW 20 26 11 14 - - 0.2
16/12:30pm 20.6 16.4 9.8 50 5.8 WNW 22 30 12 16 - - 0.2
16/12:00pm 19.3 15.6 10.3 56 4.9 NW 20 28 11 15 - - 0.2
16/11:30am 18.6 14.5 8.8 53 5.1 NW 20 26 11 14 - - 0.2
16/11:00am 19.6 16.4 9.8 53 5.3 NNW 17 26 9 14 - - 0.2
16/10:30am 19.4 16.3 10.4 56 4.9 NNW 17 24 9 13 - - 0.2
16/10:00am 18.5 15.6 12.3 67 3.5 N 19 26 10 14 - - 0.0
16/09:30am 17.1 16.7 14.0 82 1.8 NNW 9 13 5 7 - - 0.0
16/09:00am 15.4 15.1 14.4 94 0.6 NNW 9 15 5 8 - - 0.0
16/08:30am 14.0 13.8 13.7 98 0.2 NNW 7 9 4 5 - - 0.0
16/08:00am 12.8 11.9 12.6 99 0.1 N 9 11 5 6 - - 0.0
16/07:30am 10.4 8.8 10.2 99 0.1 NNW 9 11 5 6 - - 0.0
16/07:00am 10.8 9.3 10.6 99 0.1 N 9 9 5 5 - - 0.0
16/06:30am 11.0 9.5 10.7 98 0.2 N 9 11 5 6 - - 0.0
16/06:00am 10.7 9.2 10.5 99 0.1 N 9 11 5 6 - - 0.0
16/05:30am 9.0 6.7 8.9 99 0.0 N 11 11 6 6 - - 0.0
16/05:00am 9.3 7.8 9.0 98 0.1 N 7 9 4 5 - - 0.0
16/04:30am 10.6 9.6 10.4 99 0.1 NNW 6 7 3 4 - - 0.0
16/04:00am 8.3 6.7 8.0 98 0.1 WNW 6 7 3 4 - - 0.0
16/03:30am 10.7 9.8 10.5 99 0.1 ENE 6 7 3 4 - - 0.0
16/03:00am 8.9 8.2 8.5 97 0.2 ENE 2 4 1 2 - - 0.0
16/02:30am 11.1 10.2 10.8 98 0.2 ENE 6 7 3 4 - - 0.0
16/02:00am 9.4 9.2 9.1 98 0.1 CALM 0 4 0 2 - - 0.0
16/01:30am 10.2 10.2 9.9 98 0.2 CALM 0 4 0 2 - - 0.0
16/01:00am 9.5 8.9 8.9 96 0.3 S 2 4 1 2 - - 0.0
16/12:30am 10.6 10.4 10.3 98 0.2 S 2 4 1 2 - - 0.0
16/12:00am 9.3 8.3 8.8 97 0.2 SSW 4 6 2 3 - - 0.0
 
Date/Time
CST
Temp
°C
App
Temp
°C
Dew
Point
Rel
Hum
%
Delta-T
°C
Wind Press
QNH
hPa
Press
MSL
hPa
Rain
since 9 am
mm
Dir
 
Spd
km/h
Gust
km/h
Spd
kts
Gust
kts
15/11:30pm 9.1 7.6 8.6 97 0.2 SSW 6 6 3 3 - - 0.0
15/11:00pm 8.2 7.3 7.6 96 0.3 WSW 2 7 1 4 - - 0.0

Other Formats:

Comma delimited format used in spreadsheet applications
http://www.bom.gov.au/fwo/IDS60801/IDS60801.94807.axf

JavaScript Object Notation format (JSON) in row-major order
http://www.bom.gov.au/fwo/IDS60801/IDS60801.94807.json